sensor_id;sensor_type;location;lat;lon;timestamp;P1;durP1;ratioP1;P2;durP2;ratioP2
35612;SDS011;22054;51.646;7.078;2022-08-04T00:02:14;13.52;;;7.53;;
35612;SDS011;22054;51.646;7.078;2022-08-04T00:10:59;9.65;;;7.60;;
35612;SDS011;22054;51.646;7.078;2022-08-04T00:13:26;14.00;;;8.30;;
35612;SDS011;22054;51.646;7.078;2022-08-04T00:16:00;12.38;;;8.57;;
35612;SDS011;22054;51.646;7.078;2022-08-04T00:18:38;9.13;;;8.25;;
35612;SDS011;22054;51.646;7.078;2022-08-04T00:21:06;11.15;;;7.90;;
35612;SDS011;22054;51.646;7.078;2022-08-04T00:23:37;11.02;;;8.57;;
35612;SDS011;22054;51.646;7.078;2022-08-04T00:26:06;9.10;;;7.65;;
35612;SDS011;22054;51.646;7.078;2022-08-04T00:28:34;13.50;;;8.57;;
35612;SDS011;22054;51.646;7.078;2022-08-04T00:31:07;12.43;;;8.57;;
35612;SDS011;22054;51.646;7.078;2022-08-04T00:33:38;8.90;;;8.10;;
35612;SDS011;22054;51.646;7.078;2022-08-04T00:36:09;11.95;;;7.93;;
35612;SDS011;22054;51.646;7.078;2022-08-04T00:38:39;9.50;;;8.43;;
35612;SDS011;22054;51.646;7.078;2022-08-04T00:44:16;9.38;;;8.45;;
35612;SDS011;22054;51.646;7.078;2022-08-04T00:50:04;11.55;;;8.70;;
35612;SDS011;22054;51.646;7.078;2022-08-04T00:52:49;9.20;;;7.88;;
35612;SDS011;22054;51.646;7.078;2022-08-04T00:55:46;15.15;;;8.85;;
35612;SDS011;22054;51.646;7.078;2022-08-04T01:02:06;12.27;;;8.48;;
35612;SDS011;22054;51.646;7.078;2022-08-04T01:13:11;17.70;;;8.60;;
35612;SDS011;22054;51.646;7.078;2022-08-04T01:15:45;8.82;;;8.23;;
35612;SDS011;22054;51.646;7.078;2022-08-04T01:18:32;9.30;;;8.20;;
35612;SDS011;22054;51.646;7.078;2022-08-04T01:21:30;10.32;;;7.95;;
35612;SDS011;22054;51.646;7.078;2022-08-04T01:30:21;11.60;;;8.50;;
35612;SDS011;22054;51.646;7.078;2022-08-04T01:32:51;9.85;;;8.45;;
35612;SDS011;22054;51.646;7.078;2022-08-04T01:35:34;14.50;;;9.60;;
35612;SDS011;22054;51.646;7.078;2022-08-04T01:38:13;13.48;;;8.80;;
35612;SDS011;22054;51.646;7.078;2022-08-04T01:40:44;11.80;;;8.65;;
35612;SDS011;22054;51.646;7.078;2022-08-04T01:43:10;12.68;;;9.02;;
35612;SDS011;22054;51.646;7.078;2022-08-04T01:45:38;13.65;;;9.95;;
35612;SDS011;22054;51.646;7.078;2022-08-04T01:48:05;11.07;;;8.27;;
35612;SDS011;22054;51.646;7.078;2022-08-04T01:50:34;12.07;;;8.18;;
35612;SDS011;22054;51.646;7.078;2022-08-04T01:53:01;11.47;;;8.67;;
35612;SDS011;22054;51.646;7.078;2022-08-04T01:55:28;15.00;;;8.70;;
35612;SDS011;22054;51.646;7.078;2022-08-04T01:57:56;9.02;;;8.10;;
35612;SDS011;22054;51.646;7.078;2022-08-04T02:02:53;10.95;;;8.63;;
35612;SDS011;22054;51.646;7.078;2022-08-04T02:05:21;13.25;;;9.05;;
35612;SDS011;22054;51.646;7.078;2022-08-04T02:16:08;15.35;;;8.88;;
35612;SDS011;22054;51.646;7.078;2022-08-04T02:19:28;11.85;;;8.38;;
35612;SDS011;22054;51.646;7.078;2022-08-04T02:22:06;12.90;;;8.77;;
35612;SDS011;22054;51.646;7.078;2022-08-04T02:24:35;12.32;;;8.52;;
35612;SDS011;22054;51.646;7.078;2022-08-04T02:27:11;16.08;;;8.35;;
35612;SDS011;22054;51.646;7.078;2022-08-04T02:32:24;16.85;;;8.48;;
35612;SDS011;22054;51.646;7.078;2022-08-04T02:34:54;14.65;;;9.00;;
35612;SDS011;22054;51.646;7.078;2022-08-04T02:37:52;13.45;;;8.85;;
35612;SDS011;22054;51.646;7.078;2022-08-04T02:40:40;16.13;;;8.63;;
35612;SDS011;22054;51.646;7.078;2022-08-04T02:43:07;12.65;;;8.18;;
35612;SDS011;22054;51.646;7.078;2022-08-04T02:45:34;11.93;;;8.13;;
35612;SDS011;22054;51.646;7.078;2022-08-04T02:48:02;16.77;;;8.25;;
35612;SDS011;22054;51.646;7.078;2022-08-04T02:50:31;16.45;;;8.20;;
35612;SDS011;22054;51.646;7.078;2022-08-04T02:52:59;12.98;;;8.15;;
35612;SDS011;22054;51.646;7.078;2022-08-04T02:55:29;11.15;;;7.68;;
35612;SDS011;22054;51.646;7.078;2022-08-04T02:57:57;10.25;;;7.70;;
35612;SDS011;22054;51.646;7.078;2022-08-04T03:00:26;12.45;;;8.35;;
35612;SDS011;22054;51.646;7.078;2022-08-04T03:22:53;19.52;;;8.82;;
35612;SDS011;22054;51.646;7.078;2022-08-04T03:25:52;13.85;;;8.63;;
35612;SDS011;22054;51.646;7.078;2022-08-04T03:29:02;14.70;;;8.95;;
35612;SDS011;22054;51.646;7.078;2022-08-04T03:35:04;9.40;;;8.57;;
35612;SDS011;22054;51.646;7.078;2022-08-04T03:50:20;12.48;;;9.20;;
35612;SDS011;22054;51.646;7.078;2022-08-04T03:53:44;14.43;;;9.02;;
35612;SDS011;22054;51.646;7.078;2022-08-04T03:56:27;14.68;;;8.73;;
35612;SDS011;22054;51.646;7.078;2022-08-04T03:59:17;13.27;;;8.68;;
35612;SDS011;22054;51.646;7.078;2022-08-04T04:22:39;11.38;;;9.80;;
35612;SDS011;22054;51.646;7.078;2022-08-04T04:25:44;12.55;;;10.02;;
35612;SDS011;22054;51.646;7.078;2022-08-04T04:34:15;12.35;;;9.73;;
35612;SDS011;22054;51.646;7.078;2022-08-04T04:51:49;13.00;;;9.57;;
35612;SDS011;22054;51.646;7.078;2022-08-04T04:57:18;12.25;;;9.80;;
35612;SDS011;22054;51.646;7.078;2022-08-04T04:59:47;16.83;;;10.23;;
35612;SDS011;22054;51.646;7.078;2022-08-04T05:02:22;15.15;;;9.65;;
35612;SDS011;22054;51.646;7.078;2022-08-04T05:11:34;13.75;;;10.18;;
35612;SDS011;22054;51.646;7.078;2022-08-04T05:14:39;15.23;;;9.88;;
35612;SDS011;22054;51.646;7.078;2022-08-04T05:17:25;10.10;;;9.00;;
35612;SDS011;22054;51.646;7.078;2022-08-04T05:22:49;15.23;;;10.35;;
35612;SDS011;22054;51.646;7.078;2022-08-04T05:25:46;13.93;;;9.55;;
35612;SDS011;22054;51.646;7.078;2022-08-04T05:28:19;15.40;;;9.90;;
35612;SDS011;22054;51.646;7.078;2022-08-04T05:31:05;13.43;;;9.40;;
35612;SDS011;22054;51.646;7.078;2022-08-04T05:33:50;11.70;;;8.90;;
35612;SDS011;22054;51.646;7.078;2022-08-04T05:36:25;11.40;;;9.82;;
35612;SDS011;22054;51.646;7.078;2022-08-04T05:39:00;19.80;;;9.65;;
35612;SDS011;22054;51.646;7.078;2022-08-04T05:41:27;11.43;;;9.60;;
35612;SDS011;22054;51.646;7.078;2022-08-04T05:43:54;15.50;;;9.70;;
35612;SDS011;22054;51.646;7.078;2022-08-04T05:46:20;11.15;;;10.15;;
35612;SDS011;22054;51.646;7.078;2022-08-04T05:48:47;10.85;;;9.77;;
35612;SDS011;22054;51.646;7.078;2022-08-04T05:51:13;11.48;;;10.48;;
35612;SDS011;22054;51.646;7.078;2022-08-04T05:53:40;12.98;;;11.65;;
35612;SDS011;22054;51.646;7.078;2022-08-04T05:56:08;15.93;;;10.20;;
35612;SDS011;22054;51.646;7.078;2022-08-04T05:58:36;13.18;;;10.65;;
35612;SDS011;22054;51.646;7.078;2022-08-04T06:01:04;13.05;;;9.43;;
35612;SDS011;22054;51.646;7.078;2022-08-04T06:03:33;11.90;;;9.93;;
35612;SDS011;22054;51.646;7.078;2022-08-04T06:06:00;11.45;;;9.20;;
35612;SDS011;22054;51.646;7.078;2022-08-04T06:08:28;13.52;;;9.68;;
35612;SDS011;22054;51.646;7.078;2022-08-04T06:10:56;14.93;;;9.45;;
35612;SDS011;22054;51.646;7.078;2022-08-04T06:13:29;12.45;;;10.45;;
35612;SDS011;22054;51.646;7.078;2022-08-04T06:16:08;10.30;;;9.20;;
35612;SDS011;22054;51.646;7.078;2022-08-04T06:21:03;11.80;;;10.23;;
35612;SDS011;22054;51.646;7.078;2022-08-04T06:23:31;10.80;;;9.70;;
35612;SDS011;22054;51.646;7.078;2022-08-04T06:26:01;10.88;;;9.77;;
35612;SDS011;22054;51.646;7.078;2022-08-04T06:28:28;10.88;;;9.85;;
35612;SDS011;22054;51.646;7.078;2022-08-04T06:30:55;12.40;;;9.50;;
35612;SDS011;22054;51.646;7.078;2022-08-04T06:33:27;10.55;;;9.52;;
35612;SDS011;22054;51.646;7.078;2022-08-04T06:35:59;10.07;;;9.00;;
35612;SDS011;22054;51.646;7.078;2022-08-04T06:38:27;10.38;;;9.38;;
35612;SDS011;22054;51.646;7.078;2022-08-04T06:40:55;13.20;;;8.93;;
35612;SDS011;22054;51.646;7.078;2022-08-04T06:43:22;13.00;;;9.00;;
35612;SDS011;22054;51.646;7.078;2022-08-04T06:45:49;10.38;;;9.40;;
35612;SDS011;22054;51.646;7.078;2022-08-04T06:48:16;10.10;;;9.10;;
35612;SDS011;22054;51.646;7.078;2022-08-04T06:50:46;11.75;;;9.40;;
35612;SDS011;22054;51.646;7.078;2022-08-04T06:53:14;19.70;;;10.43;;
35612;SDS011;22054;51.646;7.078;2022-08-04T06:55:45;9.90;;;8.90;;
35612;SDS011;22054;51.646;7.078;2022-08-04T06:58:12;12.02;;;9.60;;
35612;SDS011;22054;51.646;7.078;2022-08-04T07:00:44;12.32;;;10.10;;
35612;SDS011;22054;51.646;7.078;2022-08-04T07:03:11;13.90;;;7.90;;
35612;SDS011;22054;51.646;7.078;2022-08-04T07:05:39;8.93;;;8.02;;
35612;SDS011;22054;51.646;7.078;2022-08-04T07:08:05;10.57;;;9.35;;
35612;SDS011;22054;51.646;7.078;2022-08-04T07:10:34;9.53;;;8.17;;
35612;SDS011;22054;51.646;7.078;2022-08-04T07:13:00;9.25;;;8.30;;
35612;SDS011;22054;51.646;7.078;2022-08-04T07:15:27;12.15;;;7.93;;
35612;SDS011;22054;51.646;7.078;2022-08-04T07:17:54;9.98;;;8.15;;
35612;SDS011;22054;51.646;7.078;2022-08-04T07:20:23;10.52;;;8.80;;
35612;SDS011;22054;51.646;7.078;2022-08-04T07:22:50;12.80;;;8.10;;
35612;SDS011;22054;51.646;7.078;2022-08-04T07:25:16;11.13;;;9.23;;
35612;SDS011;22054;51.646;7.078;2022-08-04T07:27:42;11.35;;;8.93;;
35612;SDS011;22054;51.646;7.078;2022-08-04T07:30:08;9.32;;;8.48;;
35612;SDS011;22054;51.646;7.078;2022-08-04T07:32:54;18.13;;;9.30;;
35612;SDS011;22054;51.646;7.078;2022-08-04T07:35:20;10.35;;;8.00;;
35612;SDS011;22054;51.646;7.078;2022-08-04T07:37:47;14.98;;;8.73;;
35612;SDS011;22054;51.646;7.078;2022-08-04T07:40:13;10.32;;;8.38;;
35612;SDS011;22054;51.646;7.078;2022-08-04T07:42:39;10.57;;;7.93;;
35612;SDS011;22054;51.646;7.078;2022-08-04T07:45:05;9.32;;;8.32;;
35612;SDS011;22054;51.646;7.078;2022-08-04T07:47:32;13.98;;;8.60;;
35612;SDS011;22054;51.646;7.078;2022-08-04T07:49:58;11.15;;;9.23;;
35612;SDS011;22054;51.646;7.078;2022-08-04T07:52:27;10.40;;;8.68;;
35612;SDS011;22054;51.646;7.078;2022-08-04T07:54:53;9.95;;;8.93;;
35612;SDS011;22054;51.646;7.078;2022-08-04T07:57:19;10.15;;;8.77;;
35612;SDS011;22054;51.646;7.078;2022-08-04T07:59:46;8.82;;;7.85;;
35612;SDS011;22054;51.646;7.078;2022-08-04T08:02:13;9.55;;;8.75;;
35612;SDS011;22054;51.646;7.078;2022-08-04T08:04:40;12.75;;;8.73;;
35612;SDS011;22054;51.646;7.078;2022-08-04T08:07:07;13.93;;;8.68;;
35612;SDS011;22054;51.646;7.078;2022-08-04T08:09:33;16.35;;;8.93;;
35612;SDS011;22054;51.646;7.078;2022-08-04T08:12:00;8.88;;;7.97;;
35612;SDS011;22054;51.646;7.078;2022-08-04T08:14:26;8.77;;;7.93;;
35612;SDS011;22054;51.646;7.078;2022-08-04T08:16:52;11.30;;;7.78;;
35612;SDS011;22054;51.646;7.078;2022-08-04T08:19:19;9.13;;;8.23;;
35612;SDS011;22054;51.646;7.078;2022-08-04T08:21:48;9.07;;;8.18;;
35612;SDS011;22054;51.646;7.078;2022-08-04T08:26:40;11.48;;;8.63;;
35612;SDS011;22054;51.646;7.078;2022-08-04T08:29:07;12.85;;;8.73;;
35612;SDS011;22054;51.646;7.078;2022-08-04T08:31:33;9.25;;;8.35;;
35612;SDS011;22054;51.646;7.078;2022-08-04T08:33:59;11.77;;;9.40;;
35612;SDS011;22054;51.646;7.078;2022-08-04T08:36:28;9.38;;;8.45;;
35612;SDS011;22054;51.646;7.078;2022-08-04T08:56:38;10.98;;;8.90;;
35612;SDS011;22054;51.646;7.078;2022-08-04T09:02:56;11.50;;;8.80;;
35612;SDS011;22054;51.646;7.078;2022-08-04T09:06:21;8.45;;;7.82;;
35612;SDS011;22054;51.646;7.078;2022-08-04T09:12:29;9.75;;;8.73;;
35612;SDS011;22054;51.646;7.078;2022-08-04T09:15:20;9.82;;;8.52;;
35612;SDS011;22054;51.646;7.078;2022-08-04T09:18:01;9.07;;;8.20;;
35612;SDS011;22054;51.646;7.078;2022-08-04T09:20:38;8.55;;;7.88;;
35612;SDS011;22054;51.646;7.078;2022-08-04T09:23:22;11.27;;;8.18;;
35612;SDS011;22054;51.646;7.078;2022-08-04T09:26:10;10.15;;;8.95;;
35612;SDS011;22054;51.646;7.078;2022-08-04T09:29:03;9.27;;;8.40;;
35612;SDS011;22054;51.646;7.078;2022-08-04T09:31:45;9.63;;;8.93;;
35612;SDS011;22054;51.646;7.078;2022-08-04T09:34:29;9.52;;;8.57;;
35612;SDS011;22054;51.646;7.078;2022-08-04T09:40:02;11.10;;;8.55;;
35612;SDS011;22054;51.646;7.078;2022-08-04T09:45:51;9.55;;;8.25;;
35612;SDS011;22054;51.646;7.078;2022-08-04T09:51:38;7.82;;;7.28;;
35612;SDS011;22054;51.646;7.078;2022-08-04T10:00:04;7.93;;;7.22;;
35612;SDS011;22054;51.646;7.078;2022-08-04T10:02:38;14.43;;;8.40;;
35612;SDS011;22054;51.646;7.078;2022-08-04T10:05:10;9.25;;;7.90;;
35612;SDS011;22054;51.646;7.078;2022-08-04T10:07:47;10.50;;;9.48;;
35612;SDS011;22054;51.646;7.078;2022-08-04T10:11:11;10.60;;;8.90;;
35612;SDS011;22054;51.646;7.078;2022-08-04T10:14:04;13.25;;;8.93;;
35612;SDS011;22054;51.646;7.078;2022-08-04T10:17:02;11.73;;;8.82;;
35612;SDS011;22054;51.646;7.078;2022-08-04T10:22:57;10.20;;;9.40;;
35612;SDS011;22054;51.646;7.078;2022-08-04T10:28:48;9.93;;;8.90;;
35612;SDS011;22054;51.646;7.078;2022-08-04T10:31:27;10.57;;;8.38;;
35612;SDS011;22054;51.646;7.078;2022-08-04T10:34:16;12.10;;;9.57;;
35612;SDS011;22054;51.646;7.078;2022-08-04T10:42:36;8.00;;;7.38;;
35612;SDS011;22054;51.646;7.078;2022-08-04T10:45:18;10.05;;;7.93;;
35612;SDS011;22054;51.646;7.078;2022-08-04T10:48:01;8.75;;;7.38;;
35612;SDS011;22054;51.646;7.078;2022-08-04T10:50:36;8.18;;;7.57;;
35612;SDS011;22054;51.646;7.078;2022-08-04T10:53:17;7.82;;;7.22;;
35612;SDS011;22054;51.646;7.078;2022-08-04T10:55:58;8.27;;;7.57;;
35612;SDS011;22054;51.646;7.078;2022-08-04T10:58:35;8.32;;;7.53;;
35612;SDS011;22054;51.646;7.078;2022-08-04T11:01:11;8.30;;;7.60;;
35612;SDS011;22054;51.646;7.078;2022-08-04T11:04:09;8.35;;;7.63;;
35612;SDS011;22054;51.646;7.078;2022-08-04T11:06:49;8.48;;;7.78;;
35612;SDS011;22054;51.646;7.078;2022-08-04T11:09:17;7.80;;;7.20;;
35612;SDS011;22054;51.646;7.078;2022-08-04T11:11:48;8.32;;;7.63;;
35612;SDS011;22054;51.646;7.078;2022-08-04T11:14:36;7.10;;;6.50;;
35612;SDS011;22054;51.646;7.078;2022-08-04T11:17:25;8.32;;;7.63;;
35612;SDS011;22054;51.646;7.078;2022-08-04T11:22:51;11.30;;;7.60;;
35612;SDS011;22054;51.646;7.078;2022-08-04T11:25:39;8.63;;;7.70;;
35612;SDS011;22054;51.646;7.078;2022-08-04T11:31:23;8.65;;;7.80;;
35612;SDS011;22054;51.646;7.078;2022-08-04T11:36:40;11.95;;;8.85;;
35612;SDS011;22054;51.646;7.078;2022-08-04T11:39:17;9.32;;;8.38;;
35612;SDS011;22054;51.646;7.078;2022-08-04T11:47:28;10.23;;;8.77;;
35612;SDS011;22054;51.646;7.078;2022-08-04T11:52:53;13.82;;;8.07;;
35612;SDS011;22054;51.646;7.078;2022-08-04T11:55:21;8.18;;;7.28;;
35612;SDS011;22054;51.646;7.078;2022-08-04T11:57:50;8.32;;;7.65;;
35612;SDS011;22054;51.646;7.078;2022-08-04T12:00:16;13.23;;;7.93;;
35612;SDS011;22054;51.646;7.078;2022-08-04T12:05:46;9.10;;;8.20;;
35612;SDS011;22054;51.646;7.078;2022-08-04T12:08:50;8.40;;;7.70;;
35612;SDS011;22054;51.646;7.078;2022-08-04T12:17:25;9.68;;;7.85;;
35612;SDS011;22054;51.646;7.078;2022-08-04T12:19:57;9.23;;;8.25;;
35612;SDS011;22054;51.646;7.078;2022-08-04T12:22:33;8.43;;;7.75;;
35612;SDS011;22054;51.646;7.078;2022-08-04T12:25:02;9.32;;;8.05;;
35612;SDS011;22054;51.646;7.078;2022-08-04T12:27:35;11.52;;;8.77;;
35612;SDS011;22054;51.646;7.078;2022-08-04T12:30:07;10.20;;;8.18;;
35612;SDS011;22054;51.646;7.078;2022-08-04T12:32:47;9.98;;;8.23;;
35612;SDS011;22054;51.646;7.078;2022-08-04T12:35:22;9.18;;;8.10;;
35612;SDS011;22054;51.646;7.078;2022-08-04T12:38:05;10.75;;;8.48;;
35612;SDS011;22054;51.646;7.078;2022-08-04T12:40:46;9.38;;;8.38;;
35612;SDS011;22054;51.646;7.078;2022-08-04T12:43:25;11.77;;;8.33;;
35612;SDS011;22054;51.646;7.078;2022-08-04T12:46:05;9.38;;;8.55;;
35612;SDS011;22054;51.646;7.078;2022-08-04T12:48:36;9.25;;;8.45;;
35612;SDS011;22054;51.646;7.078;2022-08-04T12:51:03;15.27;;;9.80;;
35612;SDS011;22054;51.646;7.078;2022-08-04T12:53:36;13.45;;;9.27;;
35612;SDS011;22054;51.646;7.078;2022-08-04T12:56:04;13.40;;;9.10;;
35612;SDS011;22054;51.646;7.078;2022-08-04T12:58:35;13.63;;;9.68;;
35612;SDS011;22054;51.646;7.078;2022-08-04T13:01:06;9.75;;;8.85;;
35612;SDS011;22054;51.646;7.078;2022-08-04T13:03:41;10.05;;;9.10;;
35612;SDS011;22054;51.646;7.078;2022-08-04T13:06:13;14.70;;;9.00;;
35612;SDS011;22054;51.646;7.078;2022-08-04T13:08:42;11.68;;;8.60;;
35612;SDS011;22054;51.646;7.078;2022-08-04T13:11:10;9.77;;;8.90;;
35612;SDS011;22054;51.646;7.078;2022-08-04T13:13:37;9.48;;;8.77;;
35612;SDS011;22054;51.646;7.078;2022-08-04T13:16:08;10.95;;;8.43;;
35612;SDS011;22054;51.646;7.078;2022-08-04T13:18:36;9.30;;;8.30;;
35612;SDS011;22054;51.646;7.078;2022-08-04T13:21:25;9.93;;;8.43;;
35612;SDS011;22054;51.646;7.078;2022-08-04T13:24:12;8.93;;;8.23;;
35612;SDS011;22054;51.646;7.078;2022-08-04T13:27:13;9.90;;;8.90;;
35612;SDS011;22054;51.646;7.078;2022-08-04T13:29:39;9.70;;;7.75;;
35612;SDS011;22054;51.646;7.078;2022-08-04T13:32:14;11.73;;;9.00;;
35612;SDS011;22054;51.646;7.078;2022-08-04T13:34:44;12.77;;;8.55;;
35612;SDS011;22054;51.646;7.078;2022-08-04T13:37:12;9.18;;;8.32;;
35612;SDS011;22054;51.646;7.078;2022-08-04T13:39:47;8.65;;;8.02;;
35612;SDS011;22054;51.646;7.078;2022-08-04T13:42:14;11.80;;;8.40;;
35612;SDS011;22054;51.646;7.078;2022-08-04T13:44:42;8.90;;;8.15;;
35612;SDS011;22054;51.646;7.078;2022-08-04T13:47:13;11.40;;;8.25;;
35612;SDS011;22054;51.646;7.078;2022-08-04T13:52:41;10.15;;;8.32;;
35612;SDS011;22054;51.646;7.078;2022-08-04T13:55:22;8.52;;;7.90;;
35612;SDS011;22054;51.646;7.078;2022-08-04T14:03:26;8.23;;;7.68;;
35612;SDS011;22054;51.646;7.078;2022-08-04T14:06:19;8.18;;;7.40;;
35612;SDS011;22054;51.646;7.078;2022-08-04T14:08:57;8.80;;;7.95;;
35612;SDS011;22054;51.646;7.078;2022-08-04T14:11:40;10.77;;;8.48;;
35612;SDS011;22054;51.646;7.078;2022-08-04T14:14:23;8.23;;;7.72;;
35612;SDS011;22054;51.646;7.078;2022-08-04T14:24:55;8.30;;;7.70;;
35612;SDS011;22054;51.646;7.078;2022-08-04T14:27:23;9.05;;;7.70;;
35612;SDS011;22054;51.646;7.078;2022-08-04T14:29:51;8.73;;;7.68;;
35612;SDS011;22054;51.646;7.078;2022-08-04T14:32:17;9.88;;;8.18;;
35612;SDS011;22054;51.646;7.078;2022-08-04T14:34:44;8.55;;;7.78;;
35612;SDS011;22054;51.646;7.078;2022-08-04T14:37:10;8.30;;;7.55;;
35612;SDS011;22054;51.646;7.078;2022-08-04T14:39:40;8.30;;;7.60;;
35612;SDS011;22054;51.646;7.078;2022-08-04T14:42:11;9.27;;;8.05;;
35612;SDS011;22054;51.646;7.078;2022-08-04T14:44:51;8.07;;;7.43;;
35612;SDS011;22054;51.646;7.078;2022-08-04T14:47:28;10.40;;;8.05;;
35612;SDS011;22054;51.646;7.078;2022-08-04T14:50:10;9.27;;;8.50;;
35612;SDS011;22054;51.646;7.078;2022-08-04T14:52:38;8.45;;;7.82;;
35612;SDS011;22054;51.646;7.078;2022-08-04T14:55:17;7.80;;;7.10;;
35612;SDS011;22054;51.646;7.078;2022-08-04T14:57:47;8.40;;;7.63;;
35612;SDS011;22054;51.646;7.078;2022-08-04T15:00:24;8.70;;;8.10;;
35612;SDS011;22054;51.646;7.078;2022-08-04T15:02:54;8.13;;;7.50;;
35612;SDS011;22054;51.646;7.078;2022-08-04T15:05:27;8.52;;;7.93;;
35612;SDS011;22054;51.646;7.078;2022-08-04T15:07:54;8.93;;;8.35;;
35612;SDS011;22054;51.646;7.078;2022-08-04T15:10:21;8.77;;;8.00;;
35612;SDS011;22054;51.646;7.078;2022-08-04T15:12:47;8.80;;;7.65;;
35612;SDS011;22054;51.646;7.078;2022-08-04T15:15:13;8.27;;;7.57;;
35612;SDS011;22054;51.646;7.078;2022-08-04T15:17:39;8.30;;;7.60;;
35612;SDS011;22054;51.646;7.078;2022-08-04T15:20:06;8.35;;;7.63;;
35612;SDS011;22054;51.646;7.078;2022-08-04T15:22:33;8.18;;;7.55;;
35612;SDS011;22054;51.646;7.078;2022-08-04T15:24:59;8.07;;;7.53;;
35612;SDS011;22054;51.646;7.078;2022-08-04T15:27:26;9.45;;;8.65;;
35612;SDS011;22054;51.646;7.078;2022-08-04T15:30:02;9.20;;;8.52;;
35612;SDS011;22054;51.646;7.078;2022-08-04T15:32:31;9.02;;;8.50;;
35612;SDS011;22054;51.646;7.078;2022-08-04T15:35:04;9.52;;;8.57;;
35612;SDS011;22054;51.646;7.078;2022-08-04T15:37:53;8.90;;;8.07;;
35612;SDS011;22054;51.646;7.078;2022-08-04T15:40:27;8.90;;;8.23;;
35612;SDS011;22054;51.646;7.078;2022-08-04T15:43:18;9.25;;;8.52;;
35612;SDS011;22054;51.646;7.078;2022-08-04T15:46:16;9.02;;;8.30;;
35612;SDS011;22054;51.646;7.078;2022-08-04T15:49:20;8.65;;;8.13;;
35612;SDS011;22054;51.646;7.078;2022-08-04T15:52:03;8.90;;;8.23;;
35612;SDS011;22054;51.646;7.078;2022-08-04T15:54:31;9.30;;;8.45;;
35612;SDS011;22054;51.646;7.078;2022-08-04T15:56:57;9.27;;;8.68;;
35612;SDS011;22054;51.646;7.078;2022-08-04T16:05:27;8.82;;;8.32;;
35612;SDS011;22054;51.646;7.078;2022-08-04T16:07:57;9.70;;;8.80;;
35612;SDS011;22054;51.646;7.078;2022-08-04T16:10:44;8.75;;;7.90;;
35612;SDS011;22054;51.646;7.078;2022-08-04T16:13:13;8.50;;;7.88;;
35612;SDS011;22054;51.646;7.078;2022-08-04T16:15:52;8.95;;;8.25;;
35612;SDS011;22054;51.646;7.078;2022-08-04T16:20:50;8.50;;;8.00;;
35612;SDS011;22054;51.646;7.078;2022-08-04T16:29:00;9.25;;;8.27;;
35612;SDS011;22054;51.646;7.078;2022-08-04T16:37:29;8.25;;;7.68;;
35612;SDS011;22054;51.646;7.078;2022-08-04T16:42:56;8.80;;;8.00;;
35612;SDS011;22054;51.646;7.078;2022-08-04T16:45:39;9.18;;;8.15;;
35612;SDS011;22054;51.646;7.078;2022-08-04T16:48:11;8.93;;;8.23;;
35612;SDS011;22054;51.646;7.078;2022-08-04T16:50:43;9.40;;;8.63;;
35612;SDS011;22054;51.646;7.078;2022-08-04T16:53:17;8.70;;;7.90;;
35612;SDS011;22054;51.646;7.078;2022-08-04T16:55:48;9.05;;;8.25;;
35612;SDS011;22054;51.646;7.078;2022-08-04T16:58:16;9.45;;;8.55;;
35612;SDS011;22054;51.646;7.078;2022-08-04T17:00:49;8.77;;;7.97;;
35612;SDS011;22054;51.646;7.078;2022-08-04T17:03:15;9.00;;;7.88;;
35612;SDS011;22054;51.646;7.078;2022-08-04T17:05:40;8.35;;;7.65;;
35612;SDS011;22054;51.646;7.078;2022-08-04T17:08:07;9.10;;;7.32;;
35612;SDS011;22054;51.646;7.078;2022-08-04T17:15:55;11.77;;;6.70;;
35612;SDS011;22054;51.646;7.078;2022-08-04T17:18:27;8.88;;;7.05;;
35612;SDS011;22054;51.646;7.078;2022-08-04T17:23:59;6.75;;;6.05;;
35612;SDS011;22054;51.646;7.078;2022-08-04T17:26:28;11.23;;;7.13;;
35612;SDS011;22054;51.646;7.078;2022-08-04T17:28:56;7.90;;;7.13;;
35612;SDS011;22054;51.646;7.078;2022-08-04T17:31:25;7.90;;;7.03;;
35612;SDS011;22054;51.646;7.078;2022-08-04T17:33:57;8.00;;;7.28;;
35612;SDS011;22054;51.646;7.078;2022-08-04T17:36:26;9.23;;;6.90;;
35612;SDS011;22054;51.646;7.078;2022-08-04T17:38:58;9.95;;;8.85;;
35612;SDS011;22054;51.646;7.078;2022-08-04T17:41:29;10.45;;;8.30;;
35612;SDS011;22054;51.646;7.078;2022-08-04T17:43:56;8.93;;;7.82;;
35612;SDS011;22054;51.646;7.078;2022-08-04T17:46:35;9.48;;;8.45;;
35612;SDS011;22054;51.646;7.078;2022-08-04T17:51:44;11.77;;;7.88;;
35612;SDS011;22054;51.646;7.078;2022-08-04T17:56:51;11.65;;;8.00;;
35612;SDS011;22054;51.646;7.078;2022-08-04T18:06:52;8.07;;;7.20;;
35612;SDS011;22054;51.646;7.078;2022-08-04T18:09:29;9.55;;;8.23;;
35612;SDS011;22054;51.646;7.078;2022-08-04T18:11:58;13.60;;;7.90;;
35612;SDS011;22054;51.646;7.078;2022-08-04T18:14:48;8.10;;;7.30;;
35612;SDS011;22054;51.646;7.078;2022-08-04T18:17:32;9.23;;;7.05;;
35612;SDS011;22054;51.646;7.078;2022-08-04T18:20:04;7.95;;;7.10;;
35612;SDS011;22054;51.646;7.078;2022-08-04T18:22:33;11.02;;;7.65;;
35612;SDS011;22054;51.646;7.078;2022-08-04T18:25:05;8.23;;;7.45;;
35612;SDS011;22054;51.646;7.078;2022-08-04T18:27:33;8.63;;;7.85;;
35612;SDS011;22054;51.646;7.078;2022-08-04T18:29:59;8.38;;;7.68;;
35612;SDS011;22054;51.646;7.078;2022-08-04T18:32:26;9.98;;;8.23;;
35612;SDS011;22054;51.646;7.078;2022-08-04T18:34:52;10.77;;;8.52;;
35612;SDS011;22054;51.646;7.078;2022-08-04T18:37:19;8.85;;;8.05;;
35612;SDS011;22054;51.646;7.078;2022-08-04T18:39:45;8.48;;;7.78;;
35612;SDS011;22054;51.646;7.078;2022-08-04T18:42:11;9.48;;;8.25;;
35612;SDS011;22054;51.646;7.078;2022-08-04T18:44:38;9.77;;;8.93;;
35612;SDS011;22054;51.646;7.078;2022-08-04T18:47:03;9.75;;;8.75;;
35612;SDS011;22054;51.646;7.078;2022-08-04T18:49:30;8.63;;;7.93;;
35612;SDS011;22054;51.646;7.078;2022-08-04T18:51:56;8.85;;;8.07;;
35612;SDS011;22054;51.646;7.078;2022-08-04T18:54:22;9.70;;;7.70;;
35612;SDS011;22054;51.646;7.078;2022-08-04T18:56:50;9.27;;;8.32;;
35612;SDS011;22054;51.646;7.078;2022-08-04T18:59:17;10.95;;;8.20;;
35612;SDS011;22054;51.646;7.078;2022-08-04T19:01:44;10.60;;;8.10;;
35612;SDS011;22054;51.646;7.078;2022-08-04T19:04:10;8.13;;;7.43;;
35612;SDS011;22054;51.646;7.078;2022-08-04T19:06:35;9.57;;;6.93;;
35612;SDS011;22054;51.646;7.078;2022-08-04T19:09:03;10.93;;;7.13;;
35612;SDS011;22054;51.646;7.078;2022-08-04T19:11:30;9.02;;;7.18;;
35612;SDS011;22054;51.646;7.078;2022-08-04T19:13:59;11.10;;;7.18;;
35612;SDS011;22054;51.646;7.078;2022-08-04T19:16:27;9.25;;;7.85;;
35612;SDS011;22054;51.646;7.078;2022-08-04T19:18:58;13.93;;;8.65;;
35612;SDS011;22054;51.646;7.078;2022-08-04T19:21:26;10.23;;;7.13;;
35612;SDS011;22054;51.646;7.078;2022-08-04T19:23:52;8.50;;;7.70;;
35612;SDS011;22054;51.646;7.078;2022-08-04T19:26:18;8.52;;;7.63;;
35612;SDS011;22054;51.646;7.078;2022-08-04T19:28:44;8.23;;;7.32;;
35612;SDS011;22054;51.646;7.078;2022-08-04T19:31:10;11.23;;;7.32;;
35612;SDS011;22054;51.646;7.078;2022-08-04T19:33:36;9.85;;;7.75;;
35612;SDS011;22054;51.646;7.078;2022-08-04T19:36:04;8.05;;;7.30;;
35612;SDS011;22054;51.646;7.078;2022-08-04T19:38:30;10.20;;;7.60;;
35612;SDS011;22054;51.646;7.078;2022-08-04T19:40:57;7.85;;;7.18;;
35612;SDS011;22054;51.646;7.078;2022-08-04T19:43:23;7.60;;;7.07;;
35612;SDS011;22054;51.646;7.078;2022-08-04T19:45:49;9.23;;;7.75;;
35612;SDS011;22054;51.646;7.078;2022-08-04T19:48:14;8.57;;;7.65;;
35612;SDS011;22054;51.646;7.078;2022-08-04T19:50:40;8.93;;;7.90;;
35612;SDS011;22054;51.646;7.078;2022-08-04T19:53:06;8.15;;;7.35;;
35612;SDS011;22054;51.646;7.078;2022-08-04T19:55:32;8.57;;;7.88;;
35612;SDS011;22054;51.646;7.078;2022-08-04T19:58:01;9.70;;;8.00;;